createdAt,value
2018-06-03T00:02:09.601Z,4.03
2018-06-03T00:04:39.733Z,4.03
2018-06-03T00:07:07.793Z,3.80
2018-06-03T00:09:35.874Z,4.10
2018-06-03T00:12:03.946Z,3.87
2018-06-03T00:14:32.942Z,4.10
2018-06-03T00:17:00.999Z,3.97
2018-06-03T00:19:29.069Z,3.90
2018-06-03T00:21:57.125Z,4.50
2018-06-03T00:24:25.227Z,4.20
2018-06-03T00:26:53.233Z,4.27
2018-06-03T00:29:21.321Z,4.23
2018-06-03T00:31:49.395Z,4.90
2018-06-03T00:34:18.469Z,4.03
2018-06-03T00:36:46.529Z,4.27
2018-06-03T00:39:14.590Z,4.33
2018-06-03T00:41:42.655Z,4.13
2018-06-03T00:44:10.726Z,3.53
2018-06-03T00:46:38.777Z,4.27
2018-06-03T00:49:06.859Z,3.90
2018-06-03T00:51:34.922Z,4.30
2018-06-03T00:54:02.976Z,4.07
2018-06-03T00:56:42.974Z,4.50
2018-06-03T00:59:18.498Z,4.10
2018-06-03T01:01:46.573Z,4.20
2018-06-03T01:04:14.641Z,4.10
2018-06-03T01:06:42.682Z,3.87
2018-06-03T01:09:10.918Z,3.80
2018-06-03T01:11:38.985Z,4.07
2018-06-03T01:14:07.047Z,3.83
2018-06-03T01:16:35.114Z,3.60
2018-06-03T01:19:03.162Z,4.30
2018-06-03T01:21:31.977Z,3.97
2018-06-03T01:24:00.054Z,3.90
2018-06-03T01:26:28.118Z,4.17
2018-06-03T01:28:56.201Z,4.43
2018-06-03T01:31:24.255Z,4.43
2018-06-03T01:33:52.330Z,4.90
2018-06-03T01:36:20.418Z,3.80
2018-06-03T01:38:48.473Z,3.20
2018-06-03T01:41:16.522Z,3.53
2018-06-03T01:43:44.574Z,3.00
2018-06-03T01:46:18.649Z,3.20
2018-06-03T01:48:46.718Z,3.70
2018-06-03T01:51:14.774Z,3.80
2018-06-03T01:53:42.850Z,4.30
2018-06-03T01:56:10.922Z,3.90
2018-06-03T01:58:38.999Z,3.60
2018-06-03T02:01:07.037Z,3.60
2018-06-03T02:03:35.118Z,3.87
2018-06-03T02:06:03.171Z,3.57
2018-06-03T02:11:39.290Z,3.93
2018-06-03T02:14:07.357Z,3.80
2018-06-03T02:16:39.191Z,3.43
2018-06-03T02:19:07.273Z,3.57
2018-06-03T02:21:35.335Z,4.00
2018-06-03T02:24:03.407Z,3.80
2018-06-03T02:26:31.465Z,4.47
2018-06-03T02:28:59.525Z,3.33
2018-06-03T02:31:27.574Z,3.57
2018-06-03T02:33:55.629Z,5.27
2018-06-03T02:36:23.695Z,4.13
2018-06-03T02:38:51.766Z,3.77
2018-06-03T02:41:19.849Z,4.73
2018-06-03T02:43:47.951Z,5.90
2018-06-03T02:46:16.796Z,4.97
2018-06-03T02:48:44.847Z,4.50
2018-06-03T02:51:12.937Z,4.57
2018-06-03T02:53:41.126Z,4.33
2018-06-03T02:56:09.201Z,4.33
2018-06-03T02:58:37.254Z,3.70
2018-06-03T03:01:07.222Z,3.80
2018-06-03T03:03:36.035Z,4.27
2018-06-03T03:06:04.109Z,3.80
2018-06-03T03:08:32.214Z,3.30
2018-06-03T03:11:00.266Z,3.53
2018-06-03T03:13:28.347Z,3.27
2018-06-03T03:15:56.441Z,3.37
2018-06-03T03:18:24.498Z,4.07
2018-06-03T03:20:52.562Z,4.13
2018-06-03T03:23:20.638Z,4.03
2018-06-03T03:25:49.478Z,3.27
2018-06-03T03:28:18.326Z,3.93
2018-06-03T03:30:46.366Z,3.80
2018-06-03T03:33:14.470Z,4.50
2018-06-03T03:35:42.524Z,4.27
2018-06-03T03:38:10.631Z,4.00
2018-06-03T03:40:38.711Z,4.93
2018-06-03T03:43:08.758Z,4.63
2018-06-03T03:45:36.814Z,4.67
2018-06-03T03:48:04.896Z,5.40
2018-06-03T03:50:33.006Z,5.10
2018-06-03T03:53:01.049Z,5.70
2018-06-03T03:55:29.138Z,5.20
2018-06-03T03:57:57.230Z,5.47
2018-06-03T04:00:25.309Z,5.20
2018-06-03T04:02:54.154Z,5.00
2018-06-03T04:05:23.005Z,5.57
2018-06-03T04:07:51.101Z,4.83
2018-06-03T04:10:19.929Z,4.43
2018-06-03T04:12:48.014Z,4.17
2018-06-03T04:15:16.074Z,3.80
2018-06-03T04:17:44.156Z,4.50
2018-06-03T04:20:12.228Z,4.60
2018-06-03T04:22:40.302Z,4.80
2018-06-03T04:25:08.347Z,4.13
2018-06-03T04:27:37.165Z,4.17
2018-06-03T04:30:05.240Z,4.27
2018-06-03T04:32:33.314Z,4.50
2018-06-03T04:35:07.523Z,4.00
2018-06-03T04:37:35.613Z,4.47
2018-06-03T04:40:03.685Z,5.43
2018-06-03T04:42:31.766Z,3.97
2018-06-03T04:44:59.860Z,4.17
2018-06-03T04:47:27.930Z,4.13
2018-06-03T04:50:25.665Z,4.43
2018-06-03T04:52:54.457Z,4.47
2018-06-03T04:55:23.281Z,4.57
2018-06-03T04:57:52.070Z,4.10
2018-06-03T05:00:20.882Z,4.70
2018-06-03T05:02:49.730Z,5.13
2018-06-03T05:05:18.507Z,5.27
2018-06-03T05:07:47.297Z,4.70
2018-06-03T05:10:21.677Z,5.87
2018-06-03T05:12:50.505Z,4.87
2018-06-03T05:15:19.306Z,5.03
2018-06-03T05:17:48.121Z,5.33
2018-06-03T05:20:16.890Z,5.17
2018-06-03T05:22:45.745Z,5.63
2018-06-03T05:25:14.521Z,5.23
2018-06-03T05:27:43.314Z,5.30
2018-06-03T05:30:12.119Z,5.13
2018-06-03T05:32:40.897Z,5.40
2018-06-03T05:35:11.850Z,4.63
2018-06-03T05:37:40.714Z,5.23
2018-06-03T05:40:09.570Z,5.07
2018-06-03T05:42:38.345Z,5.70
2018-06-03T05:45:07.158Z,5.93
2018-06-03T05:47:35.967Z,5.87
2018-06-03T05:50:04.802Z,5.97
2018-06-03T05:52:33.613Z,5.83
2018-06-03T05:55:06.577Z,5.77
2018-06-03T05:57:35.353Z,5.60
2018-06-03T06:00:04.310Z,5.97
2018-06-03T06:02:33.208Z,5.43
2018-06-03T06:05:01.736Z,6.37
2018-06-03T06:07:30.464Z,5.73
2018-06-03T06:09:59.209Z,6.03
2018-06-03T06:12:31.965Z,6.57
2018-06-03T06:15:00.745Z,6.10
2018-06-03T06:17:29.517Z,6.30
2018-06-03T06:19:58.277Z,5.83
2018-06-03T06:22:27.056Z,5.77
2018-06-03T06:24:55.841Z,6.10
2018-06-03T06:27:24.637Z,5.33
2018-06-03T06:29:53.454Z,6.17
2018-06-03T06:32:22.235Z,6.10
2018-06-03T06:34:51.111Z,6.77
2018-06-03T06:37:19.605Z,5.80
2018-06-03T06:39:48.340Z,5.97
2018-06-03T06:42:17.155Z,5.87
2018-06-03T06:44:45.948Z,5.90
2018-06-03T06:47:14.774Z,5.17
2018-06-03T06:49:43.576Z,5.60
2018-06-03T06:52:12.322Z,5.40
2018-06-03T06:54:41.146Z,6.37
2018-06-03T06:57:09.890Z,5.57
2018-06-03T06:59:38.673Z,5.60
2018-06-03T07:02:07.393Z,6.00
2018-06-03T07:04:36.226Z,5.77
2018-06-03T07:07:05.002Z,5.53
2018-06-03T07:09:33.874Z,5.77
2018-06-03T07:12:02.650Z,5.47
2018-06-03T07:14:31.510Z,5.60
2018-06-03T07:17:00.309Z,5.53
2018-06-03T07:19:29.319Z,5.33
2018-06-03T07:21:58.258Z,5.53
2018-06-03T07:24:27.021Z,6.30
2018-06-03T07:26:55.925Z,5.47
2018-06-03T07:29:24.730Z,5.87
2018-06-03T07:31:53.582Z,5.93
2018-06-03T07:34:22.506Z,6.33
2018-06-03T07:36:51.299Z,10.57
2018-06-03T07:39:20.122Z,8.97
2018-06-03T07:41:48.937Z,5.93
2018-06-03T07:44:17.714Z,5.50
2018-06-03T07:46:46.529Z,5.53
2018-06-03T07:49:15.358Z,4.93
2018-06-03T07:51:44.201Z,5.17
2018-06-03T07:54:13.021Z,4.70
2018-06-03T07:56:41.669Z,5.70
2018-06-03T07:59:10.437Z,5.27
2018-06-03T08:01:39.249Z,4.97
2018-06-03T08:04:08.086Z,5.63
2018-06-03T08:06:36.900Z,5.00
2018-06-03T08:09:07.266Z,5.83
2018-06-03T08:11:36.070Z,5.13
2018-06-03T08:14:05.945Z,6.30
2018-06-03T08:16:34.730Z,4.77
2018-06-03T08:19:05.164Z,4.73
2018-06-03T08:21:33.945Z,5.00
2018-06-03T08:24:02.726Z,4.23
2018-06-03T08:26:39.209Z,4.57
2018-06-03T08:29:08.030Z,3.73
2018-06-03T08:31:39.394Z,4.27
2018-06-03T08:34:08.206Z,4.00
2018-06-03T08:36:37.006Z,3.40
2018-06-03T08:39:06.851Z,3.27
2018-06-03T08:41:35.630Z,3.50
2018-06-03T08:44:04.450Z,3.50
2018-06-03T08:46:33.223Z,3.00
2018-06-03T08:49:02.052Z,3.57
2018-06-03T08:51:30.897Z,2.63
2018-06-03T08:54:03.678Z,7.07
2018-06-03T08:56:32.566Z,3.20
2018-06-03T08:59:01.366Z,4.20
2018-06-03T09:01:34.318Z,5.00
2018-06-03T09:04:03.090Z,3.83
2018-06-03T09:06:34.038Z,3.63
2018-06-03T09:09:02.945Z,3.10
2018-06-03T09:11:31.734Z,2.70
2018-06-03T09:14:00.534Z,3.43
2018-06-03T09:16:29.337Z,2.97
2018-06-03T09:18:58.169Z,3.50
2018-06-03T09:21:27.018Z,2.80
2018-06-03T09:23:55.914Z,2.77
2018-06-03T09:26:24.686Z,3.23
2018-06-03T09:28:53.522Z,3.20
2018-06-03T09:31:22.541Z,3.23
2018-06-03T09:33:51.362Z,3.43
2018-06-03T09:36:20.139Z,3.33
2018-06-03T09:38:48.924Z,2.93
2018-06-03T09:41:17.774Z,3.40
2018-06-03T09:43:46.638Z,3.70
2018-06-03T09:46:15.375Z,3.50
2018-06-03T09:48:44.200Z,3.20
2018-06-03T09:51:13.020Z,3.10
2018-06-03T09:53:41.846Z,3.00
2018-06-03T09:56:10.618Z,2.67
2018-06-03T09:58:39.166Z,3.03
2018-06-03T10:01:07.898Z,2.90
2018-06-03T10:03:36.658Z,4.30
2018-06-03T10:06:06.108Z,5.23
2018-06-03T10:08:34.930Z,3.50
2018-06-03T10:11:04.235Z,3.40
2018-06-03T10:16:11.579Z,3.10
2018-06-03T10:18:40.329Z,2.73
2018-06-03T10:21:09.210Z,2.20
2018-06-03T10:23:38.042Z,2.93
2018-06-03T10:26:06.799Z,2.77
2018-06-03T10:28:35.634Z,2.47
2018-06-03T10:31:04.429Z,2.73
2018-06-03T10:33:33.288Z,2.87
2018-06-03T10:36:02.056Z,2.37
2018-06-03T10:38:30.806Z,2.17
2018-06-03T10:40:59.625Z,2.37
2018-06-03T10:43:28.426Z,2.27
2018-06-03T10:45:57.328Z,2.40
2018-06-03T10:48:26.114Z,2.30
2018-06-03T10:50:59.086Z,2.50
2018-06-03T10:53:27.889Z,1.97
2018-06-03T10:55:56.690Z,2.37
2018-06-03T10:58:25.542Z,2.13
2018-06-03T11:00:54.382Z,2.03
2018-06-03T11:03:23.175Z,3.43
2018-06-03T11:05:52.033Z,2.07
2018-06-03T11:08:20.833Z,2.23
2018-06-03T11:10:49.662Z,3.30
2018-06-03T11:13:18.454Z,2.30
2018-06-03T11:15:47.281Z,1.90
2018-06-03T11:18:16.098Z,2.43
2018-06-03T11:20:44.902Z,2.23
2018-06-03T11:23:13.650Z,2.10
2018-06-03T11:25:42.414Z,2.67
2018-06-03T11:28:11.334Z,4.97
2018-06-03T11:30:40.169Z,3.03
2018-06-03T11:33:08.988Z,1.80
2018-06-03T11:35:37.834Z,1.50
2018-06-03T11:38:06.642Z,2.03
2018-06-03T11:40:35.452Z,5.27
2018-06-03T11:43:04.237Z,6.00
2018-06-03T11:45:39.336Z,2.30
2018-06-03T11:48:08.190Z,1.80
2018-06-03T11:50:36.970Z,1.87
2018-06-03T11:53:05.814Z,1.60
2018-06-03T11:55:35.564Z,1.57
2018-06-03T11:58:41.482Z,1.90
2018-06-03T12:01:10.254Z,2.40
2018-06-03T12:03:39.085Z,1.80
2018-06-03T12:06:07.933Z,1.77
2018-06-03T12:08:36.775Z,2.00
2018-06-03T12:11:05.562Z,1.70
2018-06-03T12:13:34.367Z,1.77
2018-06-03T12:16:03.160Z,2.67
2018-06-03T12:18:31.960Z,1.90
2018-06-03T12:21:00.773Z,1.70
2018-06-03T12:23:29.610Z,1.67
2018-06-03T12:25:58.410Z,1.70
2018-06-03T12:28:27.255Z,1.60
2018-06-03T12:30:56.046Z,1.57
2018-06-03T12:33:24.859Z,1.77
2018-06-03T12:35:53.718Z,1.97
2018-06-03T12:38:22.473Z,1.87
2018-06-03T12:40:51.306Z,2.53
2018-06-03T12:43:20.062Z,2.10
2018-06-03T12:45:48.839Z,1.90
2018-06-03T12:48:17.648Z,1.70
2018-06-03T12:50:46.493Z,1.50
2018-06-03T12:53:15.306Z,1.50
2018-06-03T12:55:44.110Z,2.90
2018-06-03T12:58:12.855Z,1.80
2018-06-03T13:00:41.682Z,1.90
2018-06-03T13:03:10.563Z,1.50
2018-06-03T13:05:40.310Z,1.37
2018-06-03T13:08:09.082Z,1.30
2018-06-03T13:10:38.023Z,1.97
2018-06-03T13:13:06.838Z,1.80
2018-06-03T13:15:35.654Z,1.40
2018-06-03T13:18:04.422Z,2.20
2018-06-03T13:20:33.306Z,1.40
2018-06-03T13:23:02.138Z,2.13
2018-06-03T13:25:30.884Z,1.80
2018-06-03T13:27:59.730Z,1.40
2018-06-03T13:30:28.525Z,1.57
2018-06-03T13:32:57.310Z,1.50
2018-06-03T13:35:26.149Z,1.87
2018-06-03T13:37:54.955Z,1.50
2018-06-03T13:40:23.765Z,1.20
2018-06-03T13:42:52.519Z,1.30
2018-06-03T13:45:21.329Z,1.40
2018-06-03T13:47:50.145Z,1.40
2018-06-03T13:50:18.969Z,1.80
2018-06-03T13:52:47.745Z,1.50
2018-06-03T13:55:16.499Z,1.77
2018-06-03T13:57:45.257Z,1.40
2018-06-03T14:00:14.012Z,1.47
2018-06-03T14:02:42.835Z,1.40
2018-06-03T14:05:11.639Z,1.40
2018-06-03T14:07:40.481Z,1.30
2018-06-03T14:10:09.510Z,1.30
2018-06-03T14:12:38.457Z,1.60
2018-06-03T14:15:07.239Z,1.23
2018-06-03T14:17:36.051Z,1.30
2018-06-03T14:20:04.989Z,1.40
2018-06-03T14:22:33.760Z,1.23
2018-06-03T14:25:02.550Z,1.33
2018-06-03T14:27:31.301Z,1.47
2018-06-03T14:30:00.150Z,1.10
2018-06-03T14:32:28.969Z,1.30
2018-06-03T14:34:57.746Z,1.10
2018-06-03T14:37:26.540Z,1.30
2018-06-03T14:39:55.392Z,1.20
2018-06-03T14:42:27.588Z,1.37
2018-06-03T14:44:56.681Z,1.27
2018-06-03T14:47:25.538Z,1.37
2018-06-03T14:49:54.386Z,1.10
2018-06-03T14:52:33.645Z,1.33
2018-06-03T14:55:02.808Z,1.40
2018-06-03T14:57:31.929Z,1.20
2018-06-03T15:00:05.732Z,1.60
2018-06-03T15:02:34.531Z,1.27
2018-06-03T15:05:04.562Z,1.17
2018-06-03T15:07:33.333Z,1.60
2018-06-03T15:10:02.114Z,2.00
2018-06-03T15:12:30.905Z,1.67
2018-06-03T15:14:59.727Z,1.70
2018-06-03T15:17:28.542Z,1.70
2018-06-03T15:19:59.031Z,1.53
2018-06-03T15:22:27.805Z,1.37
2018-06-03T15:24:56.654Z,1.63
2018-06-03T15:27:25.782Z,1.13
2018-06-03T15:29:54.736Z,1.70
2018-06-03T15:32:26.474Z,1.47
2018-06-03T15:34:55.530Z,1.70
2018-06-03T15:37:24.647Z,1.20
2018-06-03T15:39:53.794Z,1.60
2018-06-03T15:42:22.800Z,1.37
2018-06-03T15:44:51.958Z,1.40
2018-06-03T15:47:20.874Z,1.60
2018-06-03T15:49:54.747Z,1.30
2018-06-03T15:52:23.609Z,1.50
2018-06-03T15:54:52.419Z,1.20
2018-06-03T15:57:21.165Z,1.70
2018-06-03T15:59:50.951Z,1.33
2018-06-03T16:02:20.240Z,1.10
2018-06-03T16:04:49.068Z,1.50
2018-06-03T16:07:17.927Z,1.37
2018-06-03T16:09:47.682Z,1.35
2018-06-03T16:12:16.482Z,1.37
2018-06-03T16:14:45.297Z,1.50
2018-06-03T16:17:14.142Z,1.30
2018-06-03T16:19:42.882Z,1.30
2018-06-03T16:22:11.720Z,1.50
2018-06-03T16:24:40.469Z,1.80
2018-06-03T16:27:09.266Z,1.45
2018-06-03T16:29:38.109Z,1.52
2018-06-03T16:32:06.998Z,1.72
2018-06-03T16:34:35.802Z,1.87
2018-06-03T16:37:04.673Z,1.77
2018-06-03T16:39:33.445Z,1.60
2018-06-03T16:42:02.259Z,1.80
2018-06-03T16:44:31.066Z,1.80
2018-06-03T16:46:59.837Z,1.67
2018-06-03T16:49:28.662Z,1.42
2018-06-03T16:51:57.468Z,1.80
2018-06-03T16:54:26.295Z,1.90
2018-06-03T16:56:55.066Z,1.90
2018-06-03T16:59:23.910Z,1.67
2018-06-03T17:01:52.666Z,1.67
2018-06-03T17:04:21.501Z,1.60
2018-06-03T17:06:50.057Z,1.90
2018-06-03T17:09:18.502Z,1.80
2018-06-03T17:11:47.242Z,1.70
2018-06-03T17:14:16.037Z,1.70
2018-06-03T17:16:44.830Z,1.72
2018-06-03T17:19:13.622Z,1.70
2018-06-03T17:21:42.412Z,1.67
2018-06-03T17:24:11.246Z,1.62
2018-06-03T17:26:40.084Z,1.80
2018-06-03T17:29:08.846Z,1.90
2018-06-03T17:31:37.688Z,1.87
2018-06-03T17:34:06.582Z,1.82
2018-06-03T17:36:35.394Z,2.17
2018-06-03T17:39:05.893Z,2.17
2018-06-03T17:41:41.184Z,2.15
2018-06-03T17:44:10.006Z,1.55
2018-06-03T17:46:39.814Z,1.70
2018-06-03T17:49:08.612Z,1.70
2018-06-03T17:51:37.392Z,1.67
2018-06-03T17:54:07.210Z,1.70
2018-06-03T17:56:35.737Z,3.90
2018-06-03T17:59:04.482Z,8.10
2018-06-03T18:01:33.322Z,2.58
2018-06-03T18:04:02.210Z,2.05
2018-06-03T18:06:31.025Z,1.90
2018-06-03T18:08:59.826Z,2.62
2018-06-03T18:11:28.629Z,2.15
2018-06-03T18:13:57.471Z,1.72
2018-06-03T18:16:26.269Z,1.95
2018-06-03T18:18:55.008Z,2.05
2018-06-03T18:21:23.817Z,2.27
2018-06-03T18:23:52.665Z,1.90
2018-06-03T18:26:21.490Z,2.12
2018-06-03T18:28:50.363Z,2.20
2018-06-03T18:31:19.099Z,1.98
2018-06-03T18:33:47.870Z,1.65
2018-06-03T18:36:16.641Z,2.08
2018-06-03T18:38:45.493Z,1.75
2018-06-03T18:41:14.292Z,2.15
2018-06-03T18:43:43.089Z,2.12
2018-06-03T18:46:11.939Z,2.20
2018-06-03T18:48:40.756Z,2.62
2018-06-03T18:51:09.554Z,2.70
2018-06-03T18:53:38.346Z,3.00
2018-06-03T18:56:07.174Z,2.93
2018-06-03T18:58:35.974Z,2.33
2018-06-03T19:01:04.850Z,2.80
2018-06-03T19:03:33.592Z,2.80
2018-06-03T19:06:02.366Z,2.50
2018-06-03T19:08:31.142Z,3.07
2018-06-03T19:10:59.970Z,3.57
2018-06-03T19:13:29.017Z,3.27
2018-06-03T19:15:57.815Z,2.70
2018-06-03T19:18:26.668Z,3.00
2018-06-03T19:20:55.681Z,2.70
2018-06-03T19:23:24.438Z,3.27
2018-06-03T19:25:53.192Z,3.33
2018-06-03T19:28:21.982Z,3.30
2018-06-03T19:30:50.847Z,3.27
2018-06-03T19:33:19.636Z,4.27
2018-06-03T19:35:48.438Z,3.63
2018-06-03T19:38:17.230Z,5.27
2018-06-03T19:40:46.064Z,4.20
2018-06-03T19:43:14.802Z,4.10
2018-06-03T19:45:43.585Z,3.70
2018-06-03T19:48:12.410Z,3.57
2018-06-03T19:50:41.258Z,3.00
2018-06-03T19:53:10.050Z,3.67
2018-06-03T19:55:38.830Z,3.80
2018-06-03T19:58:07.671Z,3.50
2018-06-03T20:00:36.473Z,3.40
2018-06-03T20:03:05.332Z,3.90
2018-06-03T20:05:34.250Z,3.57
2018-06-03T20:08:03.098Z,3.10
2018-06-03T20:10:32.021Z,3.37
2018-06-03T20:13:00.870Z,3.73
2018-06-03T20:15:29.694Z,3.60
2018-06-03T20:17:58.639Z,3.80
2018-06-03T20:20:27.489Z,3.70
2018-06-03T20:22:56.197Z,5.00
2018-06-03T20:25:24.925Z,5.27
2018-06-03T20:27:53.840Z,4.60
2018-06-03T20:30:22.688Z,4.40
2018-06-03T20:32:51.458Z,4.90
2018-06-03T20:35:20.236Z,4.33
2018-06-03T20:37:49.086Z,4.57
2018-06-03T20:40:18.290Z,4.13
2018-06-03T20:42:47.133Z,4.73
2018-06-03T20:45:15.910Z,4.50
2018-06-03T20:47:55.769Z,5.20
2018-06-03T20:50:29.413Z,4.00
2018-06-03T20:52:58.511Z,4.77
2018-06-03T20:55:28.513Z,5.43
2018-06-03T20:57:58.403Z,5.80
2018-06-03T21:00:27.481Z,5.77
2018-06-03T21:02:56.778Z,6.30
2018-06-03T21:05:25.774Z,5.50
2018-06-03T21:07:54.537Z,5.27
2018-06-03T21:10:23.372Z,5.60
2018-06-03T21:12:52.490Z,5.60
2018-06-03T21:15:21.390Z,5.60
2018-06-03T21:17:50.214Z,5.90
2018-06-03T21:20:19.036Z,5.40
2018-06-03T21:22:47.834Z,5.27
2018-06-03T21:25:16.660Z,5.20
2018-06-03T21:27:45.454Z,5.87
2018-06-03T21:30:14.258Z,5.60
2018-06-03T21:32:43.031Z,5.50
2018-06-03T21:35:11.813Z,5.77
2018-06-03T21:37:40.594Z,5.83
2018-06-03T21:40:09.374Z,5.20
2018-06-03T21:42:38.155Z,5.40
2018-06-03T21:45:06.952Z,5.80
2018-06-03T21:47:35.769Z,5.00
2018-06-03T21:50:04.627Z,5.10
2018-06-03T21:52:33.394Z,5.50
2018-06-03T21:55:02.191Z,5.00
2018-06-03T21:57:31.022Z,4.70
2018-06-03T21:59:59.761Z,5.30
2018-06-03T22:02:28.585Z,5.37
2018-06-03T22:04:57.398Z,5.60
2018-06-03T22:07:26.469Z,5.40
2018-06-03T22:09:56.379Z,6.37
2018-06-03T22:12:25.186Z,5.83
2018-06-03T22:15:01.452Z,4.90
2018-06-03T22:17:30.342Z,4.70
2018-06-03T22:19:59.330Z,4.80
2018-06-03T22:22:28.130Z,5.50
2018-06-03T22:24:56.954Z,5.47
2018-06-03T22:27:25.717Z,5.10
2018-06-03T22:29:54.561Z,5.63
2018-06-03T22:32:23.361Z,6.13
2018-06-03T22:34:52.146Z,6.30
2018-06-03T22:37:20.973Z,5.83
2018-06-03T22:39:49.797Z,5.77
2018-06-03T22:42:18.621Z,6.27
2018-06-03T22:44:47.362Z,6.40
2018-06-03T22:47:16.225Z,5.93
2018-06-03T22:49:45.098Z,5.90
2018-06-03T22:52:14.004Z,5.83
2018-06-03T22:54:43.797Z,6.67
2018-06-03T22:57:48.146Z,6.70
2018-06-03T23:00:22.455Z,6.03
2018-06-03T23:02:56.742Z,5.53
2018-06-03T23:05:25.586Z,6.00
2018-06-03T23:07:54.502Z,5.80
2018-06-03T23:10:23.423Z,5.97
2018-06-03T23:12:52.221Z,5.77
2018-06-03T23:15:21.032Z,6.30
2018-06-03T23:17:49.806Z,5.67
2018-06-03T23:20:18.593Z,7.00
2018-06-03T23:22:47.538Z,6.90
2018-06-03T23:25:16.135Z,6.70
2018-06-03T23:27:44.970Z,6.87
2018-06-03T23:30:13.755Z,6.43
2018-06-03T23:32:42.589Z,5.97
2018-06-03T23:35:11.345Z,6.73
2018-06-03T23:37:40.133Z,7.10
2018-06-03T23:40:08.954Z,6.60
2018-06-03T23:42:37.737Z,7.37
2018-06-03T23:45:06.613Z,7.20
2018-06-03T23:47:35.472Z,6.90
2018-06-03T23:50:04.363Z,8.40
2018-06-03T23:52:33.161Z,7.60
2018-06-03T23:55:02.030Z,7.47
2018-06-03T23:57:37.565Z,7.07
